Terminal Aerodrome Forecast
Issued by NWS

Home | Current Version | Previous Version | Text Only | Print | Product List | Glossary On
Versions: 1 2 3 4 5 6 7 8 9 10 11 12 13
000
FTUS43 KTOP 221200 AAA
TAFFOE
TAF AMD
KFOE 221221Z 2212/2312 21011KT P6SM SCT150
      TEMPO 2212/2214 4SM BR
     FM222100 25010KT P6SM SCT150
     FM230100 02005KT P6SM BKN120 PROB30 2301/2305 -TSRA BKN090CB=

USA.gov is the U.S. government's official web portal to all federal, state and local government web resources and services.